»·PEaware :: N343GE KSBD-KEMT

N343GE :: KSBD-KEMT

FLIGHT INFORMATION

Flight Status: Arrived
Operator: Privately registered:
United States
More flights under this callsign
Pilot: Hyatt B. (30410)
Aircraft: SOCATA TBM-900
(TBM9)
More flights by this aircraft type
Origin: KSBD San Bernardino Intl
United States
Destination: KEMT El Monte
United States
More flights between these airports :: More routes between these airports
Route:
File this flight plan on PilotEdge
Remarks:
Altitude:
(Current/Filed)
4,500ft
Speed:
(Current/Filed)
140kts
Departed: 17-Jul-20 10:04 AM
Arrived: 17-Jul-20 10:56 AM
Distance/Time
Traveled:
82nm/0:52
Distance/Time
To Go:
Arrived

Flight Plot

Page will automatically refresh every two minutes.


Map Options




Map Legend


Flown Route
Filed Route
Departure Airport
Arrival Airport
Navaid (VOR, NDB)
Fix

Horizontal Profiles

Position Reports

Time Latitude Longitude Heading Altitude Ground
Speed
17-Jul-20 09:56 34.102121 -117.224505 181 1147ft 0kts
17-Jul-20 09:57 34.102121 -117.224505 181 1147ft 0kts
17-Jul-20 09:58 34.101039 -117.224146 116 1147ft 3kts
17-Jul-20 09:59 34.101044 -117.221657 69 1153ft 11kts
17-Jul-20 10:00 34.101121 -117.219882 159 1158ft 2kts
17-Jul-20 10:01 34.100930 -117.219798 160 1159ft 0kts
17-Jul-20 10:02 34.099333 -117.221182 250 1155ft 31kts
17-Jul-20 10:03 34.088583 -117.258000 255 2203ft 132kts
17-Jul-20 10:04 34.081297 -117.304336 259 3595ft 139kts
17-Jul-20 10:05 34.084785 -117.355506 277 4478ft 158kts
17-Jul-20 10:06 34.090551 -117.414478 277 4492ft 176kts
17-Jul-20 10:07 34.096590 -117.476042 277 4500ft 177kts
17-Jul-20 10:08 34.102112 -117.536303 276 4494ft 173kts
17-Jul-20 10:13 34.102413 -117.224486 93 1147ft 0kts
17-Jul-20 10:14 34.102413 -117.224486 93 1147ft 0kts
17-Jul-20 10:15 34.102101 -117.224522 200 1147ft 2kts
17-Jul-20 10:16 34.102068 -117.224534 193 1147ft 0kts
17-Jul-20 10:17 34.101767 -117.224573 181 1146ft 2kts
17-Jul-20 10:18 34.101682 -117.224574 181 1146ft 0kts
17-Jul-20 10:19 34.101682 -117.224574 181 1146ft 0kts
17-Jul-20 10:20 34.101682 -117.224574 181 1146ft 0kts
17-Jul-20 10:22 34.101682 -117.224574 181 1146ft 0kts
17-Jul-20 10:23 34.101682 -117.224574 181 1146ft 0kts
17-Jul-20 10:24 34.101682 -117.224574 181 1146ft 0kts
17-Jul-20 10:25 34.101065 -117.224098 114 1147ft 4kts
17-Jul-20 10:26 34.101224 -117.221094 71 1154ft 3kts
17-Jul-20 10:27 34.100981 -117.219833 160 1159ft 1kts
17-Jul-20 10:28 34.100895 -117.219796 160 1159ft 0kts
17-Jul-20 10:29 34.099743 -117.219885 232 1157ft 11kts
17-Jul-20 10:30 34.093796 -117.250730 295 1982ft 132kts
17-Jul-20 10:31 34.131341 -117.262389 359 3696ft 148kts
17-Jul-20 10:32 34.168069 -117.293675 298 4501ft 157kts
17-Jul-20 10:33 34.190532 -117.333172 352 4547ft 162kts
17-Jul-20 10:34 34.195669 -117.297870 154 4506ft 140kts
17-Jul-20 10:35 34.160132 -117.281822 178 4508ft 132kts
17-Jul-20 10:36 34.142518 -117.313578 249 4508ft 134kts
17-Jul-20 10:37 34.114374 -117.342717 205 4511ft 134kts
17-Jul-20 10:38 34.100981 -117.383542 269 4510ft 134kts
17-Jul-20 10:39 34.099871 -117.431445 270 4528ft 150kts
17-Jul-20 10:39 34.099074 -117.472896 269 4500ft 138kts
17-Jul-20 10:40 34.098758 -117.519290 270 4501ft 131kts
17-Jul-20 10:42 34.098583 -117.571713 270 4501ft 127kts
17-Jul-20 10:42 34.104264 -117.606292 312 4503ft 126kts
17-Jul-20 10:43 34.129197 -117.637338 312 4505ft 125kts
17-Jul-20 10:44 34.149904 -117.672587 292 4511ft 124kts
17-Jul-20 10:45 34.163850 -117.714845 281 4513ft 124kts
17-Jul-20 10:46 34.166251 -117.759160 266 4516ft 124kts
17-Jul-20 10:47 34.165485 -117.803626 262 4499ft 125kts
17-Jul-20 10:48 34.161301 -117.841036 257 3963ft 103kts
17-Jul-20 10:49 34.155798 -117.878639 257 3403ft 117kts
17-Jul-20 10:50 34.149515 -117.915483 258 2554ft 110kts
17-Jul-20 10:51 34.142163 -117.956017 259 2120ft 120kts
17-Jul-20 10:52 34.131059 -117.987621 202 1942ft 85kts
17-Jul-20 10:53 34.116028 -118.010876 248 1744ft 87kts
17-Jul-20 10:54 34.099469 -118.027192 207 728ft 93kts
17-Jul-20 10:55 34.084517 -118.035693 205 286ft 12kts
17-Jul-20 10:56 34.083024 -118.036002 111 284ft 5kts
17-Jul-20 10:57 34.082617 -118.035473 205 286ft 0kts
17-Jul-20 10:58 34.082617 -118.035473 205 286ft 0kts
17-Jul-20 10:59 34.082617 -118.035473 205 286ft 0kts
17-Jul-20 11:00 34.082617 -118.035473 205 286ft 0kts
17-Jul-20 11:01 34.082617 -118.035473 205 286ft 0kts
17-Jul-20 11:02 34.082617 -118.035473 205 286ft 0kts
17-Jul-20 11:03 34.082617 -118.035473 205 286ft 0kts
17-Jul-20 11:04 34.082617 -118.035473 205 286ft 0kts
17-Jul-20 11:05 32.732162 -117.176904 193 16ft 0kts
17-Jul-20 11:06 32.732162 -117.176904 193 16ft 0kts
17-Jul-20 11:07 32.732162 -117.176904 193 16ft 0kts
17-Jul-20 11:08 32.732162 -117.176904 193 16ft 0kts
17-Jul-20 11:09 32.732162 -117.176904 193 16ft 0kts

Navigation Log

Ident Type
Flight plan parsing failed, navigation log unavailable